X  Chiuso Dati meteorologici dell'aviazione (METAR)     EIDW Dublin Airport
Temperatura
15°C Temperatura
7°C Punto di rugiada
59% Umidità



Vento
23 KM/O
14 MPH
6 M/S
12 KTS



220°
SW
Condizioni attuali

Parzialmente nuvoloso Parzialmente nuvoloso
Pressione 1011.92 (hPa) - 29.88 (inHg)
Visibilità 6.2 (miglio) - 10 (km)
Aeroporto
Codice-Aeroporto EIDW

Posizione: Dublin Airport
Distanza: 17 (km)

Metar:
EIDW 271630Z 22012KT 190V260 9999 FEW018 SCT036 BKN042 15/07 Q1012 NOSIG

Ore: 27-06-2022 17:30 IST